createdAt,value
2023-03-16T00:07:05.428Z,16.95
2023-03-16T00:17:12.243Z,16.95
2023-03-16T00:27:19.297Z,16.95
2023-03-16T00:37:26.146Z,16.95
2023-03-16T00:47:33.210Z,16.95
2023-03-16T00:57:40.071Z,16.95
2023-03-16T01:07:47.323Z,16.93
2023-03-16T01:17:53.957Z,16.93
2023-03-16T01:28:00.465Z,16.95
2023-03-16T01:38:07.899Z,16.92
2023-03-16T01:48:14.297Z,16.92
2023-03-16T01:58:21.180Z,16.95
2023-03-16T02:08:28.461Z,16.95
2023-03-16T02:18:35.604Z,16.92
2023-03-16T02:28:42.309Z,16.92
2023-03-16T02:38:49.290Z,16.91
2023-03-16T02:48:56.836Z,16.91
2023-03-16T02:59:04.044Z,16.88
2023-03-16T03:09:10.767Z,16.92
2023-03-16T03:19:18.018Z,16.90
2023-03-16T03:29:25.112Z,16.88
2023-03-16T03:39:32.178Z,16.88
2023-03-16T03:49:38.969Z,16.91
2023-03-16T03:59:45.999Z,16.91
2023-03-16T04:09:53.146Z,16.90
2023-03-16T04:20:00.145Z,16.86
2023-03-16T04:30:07.073Z,16.86
2023-03-16T04:40:13.919Z,16.86
2023-03-16T04:50:20.933Z,16.83
2023-03-16T05:00:28.258Z,16.83
2023-03-16T05:10:35.919Z,16.85
2023-03-16T05:20:42.285Z,16.83
2023-03-16T05:30:49.140Z,16.85
2023-03-16T05:40:56.425Z,16.84
2023-03-16T05:51:03.504Z,16.84
2023-03-16T06:01:10.453Z,16.90
2023-03-16T06:11:17.816Z,16.90
2023-03-16T06:21:24.731Z,16.88
2023-03-16T06:31:32.139Z,16.88
2023-03-16T06:41:38.978Z,16.88
2023-03-16T06:51:44.790Z,15.59
2023-03-16T07:01:51.745Z,14.32
2023-03-16T07:11:58.475Z,13.97
2023-03-16T07:22:06.030Z,13.41
2023-03-16T07:32:14.126Z,13.76
2023-03-16T07:42:21.613Z,14.37
2023-03-16T07:52:27.829Z,14.96
2023-03-16T08:02:34.336Z,14.98
2023-03-16T08:12:41.312Z,14.38
2023-03-16T08:22:48.382Z,13.73
2023-03-16T08:32:55.563Z,13.25
2023-03-16T08:43:02.042Z,13.12
2023-03-16T08:53:08.906Z,13.15
2023-03-16T09:03:16.492Z,13.55
2023-03-16T09:13:24.428Z,14.83
2023-03-16T09:23:32.270Z,16.66
2023-03-16T09:33:40.356Z,17.78
2023-03-16T09:43:47.463Z,17.59
2023-03-16T09:53:54.632Z,16.98
2023-03-16T10:04:01.651Z,17.12
2023-03-16T10:14:08.734Z,17.59
2023-03-16T10:24:15.694Z,17.59
2023-03-16T10:34:22.647Z,17.70
2023-03-16T10:44:29.422Z,17.64
2023-03-16T10:54:35.462Z,17.59
2023-03-16T11:04:43.079Z,17.52
2023-03-16T11:14:50.599Z,17.38
2023-03-16T11:24:57.987Z,17.27
2023-03-16T11:35:04.801Z,17.27
2023-03-16T11:45:12.234Z,17.23
2023-03-16T11:55:19.267Z,17.18
2023-03-16T12:05:26.358Z,17.18
2023-03-16T12:15:33.123Z,17.16
2023-03-16T12:25:41.046Z,17.11
2023-03-16T12:35:48.042Z,17.11
2023-03-16T12:45:55.502Z,17.16
2023-03-16T12:56:02.132Z,17.16
2023-03-16T13:06:09.323Z,17.16
2023-03-16T13:16:17.048Z,17.20
2023-03-16T13:26:24.531Z,17.26
2023-03-16T13:36:31.780Z,17.31
2023-03-16T13:46:39.386Z,17.31
2023-03-16T13:56:46.362Z,17.40
2023-03-16T14:06:54.492Z,17.47
2023-03-16T14:17:01.650Z,17.45
2023-03-16T14:27:08.872Z,17.38
2023-03-16T14:37:16.183Z,17.40
2023-03-16T14:47:23.879Z,17.41
2023-03-16T14:57:31.127Z,17.42
2023-03-16T15:07:38.067Z,17.41
2023-03-16T15:17:45.597Z,17.41
2023-03-16T15:27:52.996Z,17.45
2023-03-16T15:37:59.877Z,17.43
2023-03-16T15:48:08.137Z,17.38
2023-03-16T15:58:15.925Z,17.35
2023-03-16T16:08:23.011Z,17.31
2023-03-16T16:18:30.518Z,17.27
2023-03-16T16:28:37.483Z,17.25
2023-03-16T16:38:44.146Z,17.25
2023-03-16T16:48:51.328Z,17.19
2023-03-16T16:58:58.316Z,17.19
2023-03-16T17:09:05.308Z,17.19
2023-03-16T17:19:12.541Z,17.13
2023-03-16T17:29:19.293Z,17.11
2023-03-16T17:39:26.443Z,17.09
2023-03-16T17:49:33.819Z,17.09
2023-03-16T17:59:40.694Z,17.07
2023-03-16T18:09:48.145Z,17.00
2023-03-16T18:19:54.618Z,17.00
2023-03-16T18:30:01.885Z,16.93
2023-03-16T18:40:09.036Z,16.83
2023-03-16T18:50:15.780Z,16.83
2023-03-16T19:00:22.751Z,16.76
2023-03-16T19:10:29.778Z,16.75
2023-03-16T19:20:37.130Z,16.71
2023-03-16T19:30:43.756Z,16.70
2023-03-16T19:40:51.126Z,16.69
2023-03-16T19:50:58.032Z,16.69
2023-03-16T20:01:05.971Z,16.69
2023-03-16T20:11:12.947Z,16.68
2023-03-16T20:21:20.149Z,16.68
2023-03-16T20:31:27.218Z,16.70
2023-03-16T20:41:34.195Z,16.69
2023-03-16T20:51:41.555Z,16.66
2023-03-16T21:01:48.674Z,16.66
2023-03-16T21:11:56.113Z,16.66
2023-03-16T21:22:03.565Z,16.68
2023-03-16T21:32:10.542Z,16.66
2023-03-16T21:42:17.586Z,16.66
2023-03-16T21:52:24.958Z,16.69
2023-03-16T22:02:31.637Z,16.69
2023-03-16T22:12:38.438Z,16.70
2023-03-16T22:22:45.739Z,16.68
2023-03-16T22:32:52.836Z,16.68
2023-03-16T22:42:59.880Z,16.69
2023-03-16T22:53:06.851Z,16.69
2023-03-16T23:03:14.221Z,16.68
2023-03-16T23:13:20.977Z,16.71
2023-03-16T23:23:28.276Z,16.66
2023-03-16T23:33:35.291Z,16.71
2023-03-16T23:43:42.218Z,16.69
2023-03-16T23:53:49.447Z,16.71
